createdAt,value
2017-11-12T00:00:36.935Z,988.09
2017-11-12T00:01:47.037Z,988.04
2017-11-12T00:02:57.451Z,988.08
2017-11-12T00:04:07.855Z,988.03
2017-11-12T00:05:17.927Z,988.04
2017-11-12T00:06:28.020Z,988.1
2017-11-12T00:07:38.141Z,988.04
2017-11-12T00:08:48.558Z,988.09
2017-11-12T00:09:58.984Z,988.13
2017-11-12T00:11:08.746Z,988.13
2017-11-12T00:12:18.835Z,988.1
2017-11-12T00:13:29.269Z,988.09
2017-11-12T00:14:39.689Z,988.1
2017-11-12T00:15:49.793Z,988.13
2017-11-12T00:16:59.559Z,988.15
2017-11-12T00:18:09.676Z,988.06
2017-11-12T00:19:20.091Z,988.1
2017-11-12T00:20:30.167Z,988.11
2017-11-12T00:21:40.246Z,988.13
2017-11-12T00:22:50.694Z,988.15
2017-11-12T00:24:00.446Z,988.12
2017-11-12T00:25:10.948Z,988.12
2017-11-12T00:26:21.014Z,988.07
2017-11-12T00:27:31.111Z,988
2017-11-12T00:28:41.527Z,988.04
2017-11-12T00:29:51.946Z,988.09
2017-11-12T00:31:02.366Z,988.09
2017-11-12T00:32:12.791Z,988.1
2017-11-12T00:33:22.864Z,988.06
2017-11-12T00:34:33.292Z,988.05
2017-11-12T00:35:43.709Z,988.02
2017-11-12T00:36:53.799Z,988.04
2017-11-12T00:38:04.216Z,987.97
2017-11-12T00:39:14.639Z,988.06
2017-11-12T00:40:24.375Z,988.04
2017-11-12T00:41:34.798Z,988.08
2017-11-12T00:42:44.935Z,988.08
2017-11-12T00:43:55.353Z,988.06
2017-11-12T00:45:05.448Z,988.12
2017-11-12T00:46:15.521Z,988.08
2017-11-12T00:47:25.586Z,988.04
2017-11-12T00:48:36.029Z,988.08
2017-11-12T00:49:46.110Z,988.04
2017-11-12T00:50:56.215Z,987.97
2017-11-12T00:52:06.302Z,988
2017-11-12T00:53:16.752Z,987.97
2017-11-12T00:54:27.339Z,987.95
2017-11-12T00:55:37.445Z,987.91
2017-11-12T00:56:47.844Z,987.96
2017-11-12T00:57:58.240Z,987.95
2017-11-12T00:59:07.668Z,987.91
2017-11-12T01:00:17.811Z,987.91
2017-11-12T01:01:28.219Z,987.95
2017-11-12T01:02:38.705Z,988.02
2017-11-12T01:03:49.112Z,987.96
2017-11-12T01:04:59.516Z,987.91
2017-11-12T01:06:09.940Z,987.95
2017-11-12T01:07:20.611Z,987.9
2017-11-12T01:08:30.607Z,987.89
2017-11-12T01:09:40.901Z,987.9
2017-11-12T01:10:51.010Z,987.9
2017-11-12T01:12:01.084Z,987.91
2017-11-12T01:13:11.959Z,987.93
2017-11-12T01:14:22.050Z,987.92
2017-11-12T01:15:32.479Z,987.86
2017-11-12T01:16:42.879Z,987.85
2017-11-12T01:17:53.281Z,987.9
2017-11-12T01:19:03.353Z,987.92
2017-11-12T01:20:12.766Z,987.91
2017-11-12T01:21:23.168Z,987.92
2017-11-12T01:22:33.233Z,987.94
2017-11-12T01:23:43.316Z,987.95
2017-11-12T01:24:53.403Z,987.91
2017-11-12T01:26:03.872Z,987.96
2017-11-12T01:27:13.952Z,987.98
2017-11-12T01:28:23.705Z,988.01
2017-11-12T01:29:34.133Z,988.02
2017-11-12T01:30:44.564Z,988.07
2017-11-12T01:31:54.708Z,988.04
2017-11-12T01:33:05.130Z,988.06
2017-11-12T01:34:15.210Z,988.02
2017-11-12T01:35:25.628Z,988
2017-11-12T01:36:36.028Z,988.01
2017-11-12T01:37:45.791Z,988.03
2017-11-12T01:38:55.558Z,988.03
2017-11-12T01:40:05.974Z,988.05
2017-11-12T01:41:16.405Z,988.06
2017-11-12T01:42:26.848Z,988.1
2017-11-12T01:43:36.929Z,988.09
2017-11-12T01:44:47.331Z,988.14
2017-11-12T01:45:57.745Z,988.22
2017-11-12T01:47:07.825Z,988.18
2017-11-12T01:48:17.949Z,988.2
2017-11-12T01:49:28.414Z,988.17
2017-11-12T01:50:38.509Z,988.2
2017-11-12T01:51:48.937Z,988.23
2017-11-12T01:52:59.372Z,988.23
2017-11-12T01:54:09.456Z,988.3
2017-11-12T01:55:19.566Z,988.3
2017-11-12T01:56:29.651Z,988.31
2017-11-12T01:57:39.732Z,988.3
2017-11-12T01:58:49.803Z,988.34
2017-11-12T02:00:00.255Z,988.35
2017-11-12T02:01:10.370Z,988.39
2017-11-12T02:02:20.458Z,988.36
2017-11-12T02:03:30.882Z,988.41
2017-11-12T02:04:40.941Z,988.39
2017-11-12T02:05:51.345Z,988.36
2017-11-12T02:07:01.428Z,988.41
2017-11-12T02:08:11.502Z,988.5
2017-11-12T02:09:21.590Z,988.5
2017-11-12T02:10:31.328Z,988.53
2017-11-12T02:11:41.435Z,988.47
2017-11-12T02:12:51.568Z,988.5
2017-11-12T02:14:00.987Z,988.41
2017-11-12T02:15:11.423Z,988.42
2017-11-12T02:16:21.499Z,988.41
2017-11-12T02:17:31.565Z,988.38
2017-11-12T02:18:41.653Z,988.38
2017-11-12T02:19:51.730Z,988.37
2017-11-12T02:21:02.150Z,988.35
2017-11-12T02:22:12.233Z,988.34
2017-11-12T02:23:22.675Z,988.3
2017-11-12T02:24:32.179Z,988.35
2017-11-12T02:25:42.617Z,988.34
2017-11-12T02:26:53.049Z,988.36
2017-11-12T02:28:03.461Z,988.41
2017-11-12T02:29:13.893Z,988.44
2017-11-12T02:30:24.023Z,988.5
2017-11-12T02:31:34.086Z,988.44
2017-11-12T02:32:44.494Z,988.5
2017-11-12T02:33:54.580Z,988.46
2017-11-12T02:35:04.322Z,988.43
2017-11-12T02:36:14.396Z,988.45
2017-11-12T02:37:24.832Z,988.47
2017-11-12T02:38:35.261Z,988.46
2017-11-12T02:39:45.672Z,988.46
2017-11-12T02:40:55.076Z,988.52
2017-11-12T02:42:05.497Z,988.57
2017-11-12T02:43:15.577Z,988.58
2017-11-12T02:44:25.988Z,988.59
2017-11-12T02:45:36.069Z,988.64
2017-11-12T02:46:46.473Z,988.69
2017-11-12T02:47:56.615Z,988.73
2017-11-12T02:49:07.057Z,988.74
2017-11-12T02:50:17.465Z,988.77
2017-11-12T02:51:27.534Z,988.76
2017-11-12T02:52:37.976Z,988.76
2017-11-12T02:53:48.067Z,988.76
2017-11-12T02:54:58.469Z,988.81
2017-11-12T02:56:08.872Z,988.81
2017-11-12T02:57:18.966Z,988.78
2017-11-12T02:58:29.377Z,988.75
2017-11-12T02:59:39.799Z,988.75
2017-11-12T03:00:49.943Z,988.75
2017-11-12T03:02:00.048Z,988.74
2017-11-12T03:33:08.634Z,989.22
2017-11-12T03:34:19.042Z,989.18
2017-11-12T03:35:29.444Z,989.18
2017-11-12T03:36:39.858Z,989.18
2017-11-12T03:37:49.951Z,989.21
2017-11-12T03:39:00.036Z,989.16
2017-11-12T03:40:10.425Z,989.08
2017-11-12T03:41:20.510Z,989.1
2017-11-12T03:42:30.925Z,989.19
2017-11-12T03:43:41.346Z,989.19
2017-11-12T03:44:51.094Z,989.24
2017-11-12T03:46:01.163Z,989.29
2017-11-12T03:47:11.588Z,989.28
2017-11-12T03:48:22.652Z,989.33
2017-11-12T03:49:33.043Z,989.32
2017-11-12T03:50:43.472Z,989.3
2017-11-12T03:51:53.879Z,989.26
2017-11-12T03:53:04.295Z,989.25
2017-11-12T03:54:14.046Z,989.22
2017-11-12T03:55:24.123Z,989.19
2017-11-12T03:56:33.882Z,989.27
2017-11-12T03:57:43.975Z,989.31
2017-11-12T03:58:54.064Z,989.33
2017-11-12T04:00:04.150Z,989.41
2017-11-12T04:01:14.549Z,989.41
2017-11-12T04:02:24.680Z,989.46
2017-11-12T04:03:34.432Z,989.44
2017-11-12T04:04:44.844Z,989.54
2017-11-12T04:05:55.263Z,989.58
2017-11-12T04:07:05.012Z,989.64
2017-11-12T04:08:15.094Z,989.64
2017-11-12T04:09:25.514Z,989.61
2017-11-12T04:10:35.583Z,989.62
2017-11-12T04:11:45.669Z,989.58
2017-11-12T04:12:56.069Z,989.63
2017-11-12T04:14:06.151Z,989.59
2017-11-12T04:15:16.573Z,989.56
2017-11-12T04:16:26.984Z,989.56
2017-11-12T04:17:37.079Z,989.59
2017-11-12T04:18:47.168Z,989.59
2017-11-12T04:19:57.575Z,989.64
2017-11-12T04:21:07.975Z,989.72
2017-11-12T04:22:18.059Z,989.67
2017-11-12T04:23:28.119Z,989.73
2017-11-12T04:24:37.871Z,989.66
2017-11-12T04:25:48.281Z,989.67
2017-11-12T04:26:58.361Z,989.72
2017-11-12T04:28:08.116Z,989.7
2017-11-12T04:29:17.882Z,989.81
2017-11-12T04:30:28.281Z,989.92
2017-11-12T04:31:38.033Z,989.84
2017-11-12T04:32:48.436Z,989.79
2017-11-12T04:33:58.520Z,989.87
2017-11-12T04:35:08.934Z,989.77
2017-11-12T04:36:19.336Z,989.75
2017-11-12T04:37:29.452Z,989.74
2017-11-12T04:38:39.863Z,989.76
2017-11-12T04:39:49.621Z,989.78
2017-11-12T04:41:00.028Z,989.79
2017-11-12T04:42:10.113Z,989.84
2017-11-12T04:43:20.252Z,989.84
2017-11-12T04:44:30.656Z,989.88
2017-11-12T04:45:40.729Z,989.88
2017-11-12T04:46:51.156Z,989.92
2017-11-12T04:48:01.568Z,989.98
2017-11-12T04:49:11.658Z,989.95
2017-11-12T04:50:21.731Z,989.93
2017-11-12T04:51:32.200Z,989.97
2017-11-12T04:52:41.948Z,990
2017-11-12T04:53:52.019Z,990.01
2017-11-12T04:55:02.474Z,990.01
2017-11-12T04:56:12.895Z,990
2017-11-12T04:57:22.650Z,989.95
2017-11-12T04:58:32.730Z,990.01
2017-11-12T04:59:43.155Z,990.05
2017-11-12T05:00:52.899Z,990.07
2017-11-12T05:02:02.639Z,989.99
2017-11-12T05:03:12.377Z,990
2017-11-12T05:04:22.811Z,989.95
2017-11-12T05:05:32.900Z,990
2017-11-12T05:06:43.383Z,989.96
2017-11-12T05:07:53.805Z,990.02
2017-11-12T05:09:04.204Z,989.93
2017-11-12T05:10:14.642Z,989.89
2017-11-12T05:11:24.715Z,989.88
2017-11-12T05:12:35.187Z,989.94
2017-11-12T05:13:45.256Z,990.01
2017-11-12T05:14:55.712Z,990.06
2017-11-12T05:16:05.781Z,990.08
2017-11-12T05:17:15.893Z,990.11
2017-11-12T05:18:26.338Z,990.08
2017-11-12T05:19:36.800Z,990.08
2017-11-12T05:20:47.216Z,990.09
2017-11-12T05:21:57.304Z,990.1
2017-11-12T05:23:07.384Z,990
2017-11-12T05:24:17.523Z,990
2017-11-12T05:25:27.604Z,989.99
2017-11-12T05:26:38.054Z,990.09
2017-11-12T05:27:48.156Z,990.09
2017-11-12T05:28:58.238Z,990.13
2017-11-12T05:30:08.323Z,990.22
2017-11-12T05:31:18.722Z,990.28
2017-11-12T05:32:28.836Z,990.33
2017-11-12T05:33:39.257Z,990.29
2017-11-12T05:34:49.682Z,990.37
2017-11-12T05:35:59.836Z,990.38
2017-11-12T05:37:08.912Z,990.39
2017-11-12T05:38:19.314Z,990.4
2017-11-12T05:39:29.720Z,990.41
2017-11-12T05:40:39.797Z,990.4
2017-11-12T05:41:50.213Z,990.46
2017-11-12T05:42:59.960Z,990.44
2017-11-12T05:44:10.382Z,990.46
2017-11-12T05:45:20.464Z,990.49
2017-11-12T05:46:30.546Z,990.49
2017-11-12T05:47:40.618Z,990.53
2017-11-12T05:48:50.709Z,990.59
2017-11-12T05:50:01.091Z,990.57
2017-11-12T05:51:10.828Z,990.59
2017-11-12T05:52:20.896Z,990.62
2017-11-12T05:53:31.328Z,990.6
2017-11-12T05:54:41.755Z,990.6
2017-11-12T05:55:51.830Z,990.64
2017-11-12T05:57:01.904Z,990.66
2017-11-12T05:58:11.974Z,990.7
2017-11-12T05:59:22.402Z,990.64
2017-11-12T06:00:32.866Z,990.66
2017-11-12T06:01:43.299Z,990.69
2017-11-12T06:02:53.710Z,990.7
2017-11-12T06:04:04.108Z,990.72
2017-11-12T06:05:14.231Z,990.71
2017-11-12T06:06:24.316Z,990.73
2017-11-12T06:07:34.049Z,990.75
2017-11-12T06:08:43.779Z,990.75
2017-11-12T06:09:53.853Z,990.73
2017-11-12T06:11:04.268Z,990.83
2017-11-12T06:12:14.013Z,990.89
2017-11-12T06:13:23.746Z,991
2017-11-12T06:14:34.148Z,990.95
2017-11-12T06:15:44.555Z,991
2017-11-12T06:16:54.956Z,990.96
2017-11-12T06:18:05.044Z,990.96
2017-11-12T06:19:15.462Z,990.87
2017-11-12T06:20:25.588Z,990.84
2017-11-12T06:21:35.934Z,990.8
2017-11-12T06:22:45.677Z,990.74
2017-11-12T06:23:56.099Z,990.73
2017-11-12T06:25:06.513Z,990.72
2017-11-12T06:26:16.595Z,990.74
2017-11-12T06:27:26.672Z,990.69
2017-11-12T06:28:37.084Z,990.72
2017-11-12T06:29:47.516Z,990.79
2017-11-12T06:30:57.282Z,990.87
2017-11-12T06:32:07.684Z,990.92
2017-11-12T06:33:17.753Z,990.88
2017-11-12T06:34:28.158Z,990.88
2017-11-12T06:35:38.230Z,990.86
2017-11-12T06:36:47.972Z,990.83
2017-11-12T06:37:58.033Z,990.81
2017-11-12T06:39:07.817Z,990.78
2017-11-12T06:40:18.267Z,990.82
2017-11-12T06:41:28.704Z,990.82
2017-11-12T06:42:39.118Z,990.78
2017-11-12T06:43:48.864Z,990.79
2017-11-12T06:44:59.279Z,990.84
2017-11-12T06:46:09.751Z,990.86
2017-11-12T06:47:20.167Z,990.83
2017-11-12T06:48:30.591Z,990.82
2017-11-12T06:49:40.333Z,990.85
2017-11-12T06:50:50.722Z,990.82
2017-11-12T06:52:01.199Z,990.83
2017-11-12T06:53:10.940Z,990.77
2017-11-12T06:54:21.025Z,990.72
2017-11-12T06:55:31.445Z,990.76
2017-11-12T06:56:41.523Z,990.74
2017-11-12T06:57:51.647Z,990.76
2017-11-12T06:59:02.060Z,990.73
2017-11-12T07:00:11.479Z,990.72
2017-11-12T07:01:21.888Z,990.75
2017-11-12T07:02:31.986Z,990.81
2017-11-12T07:03:42.453Z,990.87
2017-11-12T07:04:52.888Z,990.89
2017-11-12T07:06:02.990Z,990.91
2017-11-12T07:07:13.421Z,990.92
2017-11-12T07:08:23.831Z,990.91
2017-11-12T07:09:34.296Z,990.88
2017-11-12T07:10:44.721Z,990.88
2017-11-12T07:11:54.789Z,990.87
2017-11-12T07:13:05.185Z,990.85
2017-11-12T07:14:15.613Z,990.85
2017-11-12T07:15:26.072Z,990.89
2017-11-12T07:16:36.475Z,990.89
2017-11-12T07:17:46.889Z,990.93
2017-11-12T07:18:56.966Z,990.91
2017-11-12T07:20:07.100Z,990.88
2017-11-12T07:21:16.924Z,990.83
2017-11-12T07:22:27.349Z,990.8
2017-11-12T07:23:37.773Z,990.87
2017-11-12T07:24:48.184Z,990.85
2017-11-12T07:25:58.600Z,990.87
2017-11-12T07:27:09.048Z,990.88
2017-11-12T07:28:19.131Z,990.89
2017-11-12T07:29:29.206Z,990.87
2017-11-12T07:30:39.602Z,990.86
2017-11-12T07:31:49.687Z,990.84
2017-11-12T07:32:59.779Z,990.85
2017-11-12T07:34:09.860Z,990.82
2017-11-12T07:35:20.282Z,990.84
2017-11-12T07:36:30.692Z,990.87
2017-11-12T07:37:41.093Z,990.86
2017-11-12T07:38:51.190Z,990.84
2017-11-12T07:40:01.625Z,990.85
2017-11-12T07:41:11.708Z,990.86
2017-11-12T07:42:21.775Z,990.94
2017-11-12T07:43:31.877Z,990.97
2017-11-12T07:44:41.653Z,990.96
2017-11-12T07:45:52.070Z,990.97
2017-11-12T07:47:02.499Z,990.95
2017-11-12T07:48:12.242Z,990.88
2017-11-12T07:49:22.323Z,990.83
2017-11-12T07:50:32.472Z,990.84
2017-11-12T07:51:42.540Z,990.84
2017-11-12T07:52:52.616Z,990.86
2017-11-12T07:54:03.041Z,990.88
2017-11-12T07:55:13.431Z,990.87
2017-11-12T07:56:23.851Z,990.88
2017-11-12T07:57:33.917Z,990.83
2017-11-12T07:58:44.330Z,990.81
2017-11-12T07:59:54.402Z,990.77
2017-11-12T08:01:04.804Z,990.83
2017-11-12T08:02:14.936Z,990.79
2017-11-12T08:03:25.015Z,990.87
2017-11-12T08:04:35.443Z,990.82
2017-11-12T08:05:45.870Z,990.82
2017-11-12T08:06:56.287Z,990.82
2017-11-12T08:08:06.040Z,990.72
2017-11-12T08:09:16.123Z,990.72
2017-11-12T08:10:26.582Z,990.67
2017-11-12T08:11:36.984Z,990.71
2017-11-12T08:12:47.055Z,990.61
2017-11-12T08:13:57.473Z,990.67
2017-11-12T08:15:07.544Z,990.67
2017-11-12T08:16:17.289Z,990.64
2017-11-12T08:17:27.029Z,990.6
2017-11-12T08:18:37.445Z,990.56
2017-11-12T08:19:47.861Z,990.49
2017-11-12T08:20:58.283Z,990.45
2017-11-12T08:22:08.369Z,990.4
2017-11-12T08:23:18.774Z,990.4
2017-11-12T08:24:29.208Z,990.41
2017-11-12T08:25:39.624Z,990.31
2017-11-12T08:26:50.039Z,990.32
2017-11-12T08:28:00.134Z,990.28
2017-11-12T08:29:10.220Z,990.21
2017-11-12T08:30:20.353Z,990.15
2017-11-12T08:31:30.762Z,990.06
2017-11-12T08:32:40.841Z,990.07
2017-11-12T08:33:51.507Z,989.98
2017-11-12T08:35:02.202Z,989.96
2017-11-12T08:36:12.610Z,989.91
2017-11-12T08:37:22.695Z,989.88
2017-11-12T08:38:33.146Z,989.87
2017-11-12T08:39:43.566Z,989.85
2017-11-12T08:40:53.989Z,989.82
2017-11-12T08:42:04.404Z,989.84
2017-11-12T08:43:14.527Z,989.89
2017-11-12T08:44:24.278Z,989.86
2017-11-12T08:45:34.791Z,989.88
2017-11-12T08:46:45.201Z,989.82
2017-11-12T08:47:55.631Z,989.86
2017-11-12T08:49:06.052Z,989.87
2017-11-12T08:50:16.472Z,989.89
2017-11-12T08:51:26.920Z,989.86
2017-11-12T08:52:37.101Z,989.84
2017-11-12T08:53:47.168Z,989.85
2017-11-12T08:54:57.300Z,989.84
2017-11-12T08:56:07.041Z,989.84
2017-11-12T08:57:16.828Z,989.85
2017-11-12T08:58:27.246Z,989.81
2017-11-12T08:59:37.663Z,989.77
2017-11-12T09:00:48.091Z,989.82
2017-11-12T09:01:58.175Z,989.84
2017-11-12T09:03:08.253Z,989.85
2017-11-12T09:04:18.331Z,989.83
2017-11-12T09:05:28.421Z,989.85
2017-11-12T09:06:38.854Z,989.9
2017-11-12T09:07:48.590Z,989.92
2017-11-12T09:08:58.665Z,989.97
2017-11-12T09:10:09.073Z,989.96
2017-11-12T09:11:19.159Z,989.99
2017-11-12T09:12:29.330Z,990.02
2017-11-12T09:13:39.405Z,990.03
2017-11-12T09:14:49.149Z,990.04
2017-11-12T09:15:59.578Z,990.06
2017-11-12T09:17:09.674Z,990.13
2017-11-12T09:18:19.822Z,990.13
2017-11-12T09:19:29.914Z,990.13
2017-11-12T09:20:39.993Z,990.15
2017-11-12T09:21:50.116Z,990.21
2017-11-12T09:23:00.534Z,990.25
2017-11-12T09:24:10.608Z,990.24
2017-11-12T09:25:21.032Z,990.23
2017-11-12T09:26:31.481Z,990.24
2017-11-12T09:27:41.749Z,990.21
2017-11-12T09:28:52.529Z,990.21
2017-11-12T09:30:03.224Z,990.2
2017-11-12T09:31:13.306Z,990.18
2017-11-12T09:32:23.528Z,990.16
2017-11-12T09:33:34.313Z,990.12
2017-11-12T09:34:45.608Z,990.14
2017-11-12T09:35:56.099Z,990.11
2017-11-12T09:37:06.224Z,990.12
2017-11-12T09:38:16.728Z,990.04
2017-11-12T09:39:26.834Z,990.02
2017-11-12T09:40:37.288Z,989.99
2017-11-12T09:41:48.072Z,989.96
2017-11-12T09:43:01.877Z,989.98
2017-11-12T09:44:15.789Z,989.99
2017-11-12T09:45:26.273Z,989.99
2017-11-12T09:46:38.662Z,989.98
2017-11-12T09:47:56.369Z,989.94
2017-11-12T09:49:09.550Z,989.95
2017-11-12T09:50:21.913Z,989.89
2017-11-12T09:51:46.976Z,989.84
2017-11-12T09:53:21.041Z,989.84
2017-11-12T09:54:48.909Z,989.75
2017-11-12T09:56:04.056Z,989.75
2017-11-12T09:57:14.518Z,989.7
2017-11-12T09:58:25.412Z,989.66
2017-11-12T09:59:40.178Z,989.66
2017-11-12T10:00:57.766Z,989.66
2017-11-12T10:02:08.598Z,989.66
2017-11-12T10:03:24.306Z,989.65
2017-11-12T10:04:34.412Z,989.58
2017-11-12T10:05:44.869Z,989.63
2017-11-12T10:06:55.336Z,989.61
2017-11-12T10:08:05.454Z,989.56
2017-11-12T10:09:15.725Z,989.56
2017-11-12T10:10:33.630Z,989.52
2017-11-12T10:11:43.759Z,989.54
2017-11-12T10:12:53.877Z,989.52
2017-11-12T10:14:03.992Z,989.48
2017-11-12T10:15:14.124Z,989.44
2017-11-12T10:16:24.809Z,989.42
2017-11-12T10:17:39.812Z,989.4
2017-11-12T10:18:50.317Z,989.32
2017-11-12T10:20:00.512Z,989.29
2017-11-12T10:21:13.494Z,989.23
2017-11-12T10:22:27.822Z,989.19
2017-11-12T10:23:43.424Z,989.17
2017-11-12T10:24:53.913Z,989.11
2017-11-12T10:26:04.422Z,989.09
2017-11-12T10:27:14.883Z,989.11
2017-11-12T10:28:25.335Z,989.08
2017-11-12T10:29:35.184Z,988.96
2017-11-12T10:30:45.672Z,988.97
2017-11-12T10:31:56.171Z,988.91
2017-11-12T10:33:06.632Z,988.89
2017-11-12T10:34:17.118Z,988.84
2017-11-12T10:35:27.589Z,988.78
2017-11-12T10:36:37.387Z,988.72
2017-11-12T10:37:49.399Z,988.68
2017-11-12T10:39:04.981Z,988.61
2017-11-12T10:40:21.241Z,988.54
2017-11-12T10:41:39.525Z,988.48
2017-11-12T10:42:50.002Z,988.45
2017-11-12T10:44:00.121Z,988.44
2017-11-12T10:45:10.578Z,988.45
2017-11-12T10:46:21.043Z,988.46
2017-11-12T10:47:31.658Z,988.44
2017-11-12T10:48:42.440Z,988.44
2017-11-12T10:49:56.696Z,988.41
2017-11-12T10:51:07.202Z,988.4
2017-11-12T10:52:17.386Z,988.42
2017-11-12T10:53:27.503Z,988.41
2017-11-12T10:54:37.618Z,988.43
2017-11-12T10:55:47.726Z,988.42
2017-11-12T10:56:58.165Z,988.41
2017-11-12T10:58:07.974Z,988.4
2017-11-12T10:59:18.484Z,988.36
2017-11-12T11:00:29.051Z,988.34
2017-11-12T11:01:44.458Z,988.29
2017-11-12T11:02:54.926Z,988.24
2017-11-12T11:04:05.048Z,988.23
2017-11-12T11:05:15.530Z,988.15
2017-11-12T11:06:26.055Z,988.15
2017-11-12T11:07:36.203Z,988.17
2017-11-12T11:08:46.312Z,988.19
2017-11-12T11:09:56.709Z,988.17
2017-11-12T11:11:11.263Z,988.15
2017-11-12T11:12:31.266Z,988.15
2017-11-12T11:13:41.721Z,988.1
2017-11-12T11:14:51.837Z,988.05
2017-11-12T11:16:01.996Z,987.95
2017-11-12T11:17:12.445Z,987.91
2017-11-12T11:18:22.559Z,987.87
2017-11-12T11:19:32.671Z,987.79
2017-11-12T11:20:43.138Z,987.75
2017-11-12T11:21:52.975Z,987.68
2017-11-12T11:23:03.775Z,987.61
2017-11-12T11:24:19.393Z,987.56
2017-11-12T11:25:30.282Z,987.52
2017-11-12T11:26:44.843Z,987.44
2017-11-12T11:27:54.964Z,987.38
2017-11-12T11:29:06.588Z,987.33
2017-11-12T11:30:16.713Z,987.31
2017-11-12T11:31:30.025Z,987.33
2017-11-12T11:32:40.493Z,987.37
2017-11-12T11:33:50.600Z,987.34
2017-11-12T11:35:00.728Z,987.32
2017-11-12T11:36:11.231Z,987.34
2017-11-12T11:37:26.049Z,987.34
2017-11-12T11:38:36.517Z,987.33
2017-11-12T11:39:46.621Z,987.25
2017-11-12T11:40:59.058Z,987.23
2017-11-12T11:42:15.688Z,987.22
2017-11-12T11:43:26.205Z,987.21
2017-11-12T11:44:36.363Z,987.18
2017-11-12T11:45:46.825Z,987.13
2017-11-12T11:46:57.791Z,987.09
2017-11-12T11:48:12.733Z,987.06
2017-11-12T11:49:23.113Z,987.01
2017-11-12T11:50:36.651Z,986.97
2017-11-12T11:51:51.066Z,986.97
2017-11-12T11:53:06.266Z,986.95
2017-11-12T11:54:24.223Z,986.95
2017-11-12T11:55:37.878Z,986.99
2017-11-12T11:56:51.342Z,987.04
2017-11-12T11:58:01.470Z,987
2017-11-12T11:59:11.970Z,986.97
2017-11-12T12:00:22.077Z,987.03
2017-11-12T12:01:32.550Z,987.01
2017-11-12T12:02:42.661Z,986.98
2017-11-12T12:03:53.136Z,986.92
2017-11-12T12:05:03.302Z,986.89
2017-11-12T12:06:13.751Z,986.81
2017-11-12T12:07:24.179Z,986.83
2017-11-12T12:08:33.622Z,986.75
2017-11-12T12:09:43.749Z,986.69
2017-11-12T12:10:53.923Z,986.66
2017-11-12T12:12:04.049Z,986.61
2017-11-12T12:13:14.512Z,986.61
2017-11-12T12:14:24.973Z,986.65
2017-11-12T12:15:35.419Z,986.68
2017-11-12T12:16:45.884Z,986.66
2017-11-12T12:17:55.669Z,986.68
2017-11-12T12:19:06.116Z,986.69
2017-11-12T12:20:17.166Z,986.64
2017-11-12T12:21:28.168Z,986.65
2017-11-12T12:22:42.392Z,986.61
2017-11-12T12:23:54.037Z,986.59
2017-11-12T12:25:04.480Z,986.54
2017-11-12T12:26:14.925Z,986.52
2017-11-12T12:27:24.713Z,986.5
2017-11-12T12:28:35.157Z,986.43
2017-11-12T12:29:44.917Z,986.39
2017-11-12T12:30:55.368Z,986.35
2017-11-12T12:32:05.481Z,986.31
2017-11-12T12:33:15.926Z,986.26
2017-11-12T12:34:26.373Z,986.19
2017-11-12T12:35:36.482Z,986.15
2017-11-12T12:36:46.934Z,986.13
2017-11-12T12:37:57.027Z,986.07
2017-11-12T12:39:07.126Z,986.09
2017-11-12T12:40:17.228Z,986.04
2017-11-12T12:41:27.675Z,986.03
2017-11-12T12:42:37.443Z,986.01
2017-11-12T12:43:47.917Z,985.96
2017-11-12T12:44:58.365Z,985.9
2017-11-12T12:46:08.532Z,985.86
2017-11-12T12:47:18.635Z,985.81
2017-11-12T12:48:29.093Z,985.86
2017-11-12T12:49:39.507Z,985.86
2017-11-12T12:50:49.285Z,985.84
2017-11-12T12:51:59.062Z,985.83
2017-11-12T12:53:09.176Z,985.82
2017-11-12T12:54:19.611Z,985.75
2017-11-12T12:55:30.081Z,985.71
2017-11-12T12:56:39.857Z,985.71
2017-11-12T12:57:49.687Z,985.71
2017-11-12T12:59:00.113Z,985.67
2017-11-12T13:00:10.541Z,985.64
2017-11-12T13:01:21.028Z,985.65
2017-11-12T13:02:32.320Z,985.62
2017-11-12T13:03:42.467Z,985.56
2017-11-12T13:04:52.227Z,985.53
2017-11-12T13:06:01.988Z,985.57
2017-11-12T13:07:12.095Z,985.52
2017-11-12T13:08:22.542Z,985.42
2017-11-12T13:09:32.347Z,985.45
2017-11-12T13:10:42.114Z,985.44
2017-11-12T13:11:52.238Z,985.43
2017-11-12T13:13:02.694Z,985.35
2017-11-12T13:14:12.790Z,985.31
2017-11-12T13:15:22.934Z,985.28
2017-11-12T13:16:33.343Z,985.29
2017-11-12T13:17:43.457Z,985.24
2017-11-12T13:18:53.888Z,985.24
2017-11-12T13:20:03.640Z,985.25
2017-11-12T13:21:14.073Z,985.21
2017-11-12T13:22:23.838Z,985.21
2017-11-12T13:23:34.275Z,985.19
2017-11-12T13:24:44.713Z,985.15
2017-11-12T13:25:54.834Z,985.15
2017-11-12T13:27:05.332Z,985.1
2017-11-12T13:28:15.434Z,985.05
2017-11-12T13:29:25.542Z,985.06
2017-11-12T13:30:35.621Z,985.04
2017-11-12T13:31:45.704Z,985.04
2017-11-12T13:32:55.833Z,985.03
2017-11-12T13:34:05.935Z,984.99
2017-11-12T13:35:16.046Z,984.95
2017-11-12T13:36:25.814Z,984.88
2017-11-12T13:37:36.239Z,984.8
2017-11-12T13:38:46.347Z,984.84
2017-11-12T13:39:56.459Z,984.84
2017-11-12T13:41:06.549Z,984.84
2017-11-12T13:42:16.650Z,984.82
2017-11-12T13:43:26.751Z,984.79
2017-11-12T13:44:37.195Z,984.77
2017-11-12T13:45:47.285Z,984.75
2017-11-12T13:46:57.717Z,984.77
2017-11-12T13:48:08.137Z,984.68
2017-11-12T13:49:18.554Z,984.68
2017-11-12T13:50:28.988Z,984.67
2017-11-12T13:51:38.752Z,984.6
2017-11-12T13:52:48.538Z,984.55
2017-11-12T13:53:59.003Z,984.48
2017-11-12T13:55:09.479Z,984.46
2017-11-12T13:56:19.627Z,984.43
2017-11-12T13:57:30.092Z,984.41
2017-11-12T13:58:40.185Z,984.49
2017-11-12T13:59:50.652Z,984.58
2017-11-12T14:01:01.096Z,984.6
2017-11-12T14:02:11.532Z,984.57
2017-11-12T14:03:21.958Z,984.53
2017-11-12T14:04:33.137Z,984.51
2017-11-12T14:05:43.242Z,984.47
2017-11-12T14:06:53.666Z,984.39
2017-11-12T14:08:04.162Z,984.32
2017-11-12T14:09:14.273Z,984.2
2017-11-12T14:10:24.364Z,984.22
2017-11-12T14:11:34.122Z,984.19
2017-11-12T14:12:44.558Z,984.13
2017-11-12T14:13:54.730Z,984
2017-11-12T14:15:05.173Z,983.96
2017-11-12T14:16:15.600Z,983.95
2017-11-12T14:17:26.070Z,983.88
2017-11-12T14:18:36.510Z,983.9
2017-11-12T14:19:47.026Z,983.92
2017-11-12T14:20:57.123Z,983.96
2017-11-12T14:22:07.579Z,983.97
2017-11-12T14:23:17.339Z,984.02
2017-11-12T14:24:27.116Z,983.94
2017-11-12T14:25:37.589Z,983.87
2017-11-12T14:26:48.008Z,983.88
2017-11-12T14:27:58.122Z,983.84
2017-11-12T14:29:08.379Z,983.85
2017-11-12T14:30:19.309Z,983.74
2017-11-12T14:31:29.738Z,983.71
2017-11-12T14:32:39.827Z,983.7
2017-11-12T14:33:50.252Z,983.69
2017-11-12T14:35:00.698Z,983.7
2017-11-12T14:36:11.118Z,983.66
2017-11-12T14:37:21.556Z,983.67
2017-11-12T14:38:32.003Z,983.69
2017-11-12T14:39:42.442Z,983.69
2017-11-12T14:40:52.897Z,983.71
2017-11-12T14:42:02.668Z,983.67
2017-11-12T14:43:13.089Z,983.63
2017-11-12T14:44:22.529Z,983.68
2017-11-12T14:45:34.071Z,983.63
2017-11-12T14:46:44.499Z,983.67
2017-11-12T14:47:54.936Z,983.64
2017-11-12T14:49:05.417Z,983.66
2017-11-12T14:50:15.524Z,983.63
2017-11-12T14:51:25.632Z,983.67
2017-11-12T14:52:35.764Z,983.65
2017-11-12T14:53:45.876Z,983.71
2017-11-12T14:54:57.105Z,983.69
2017-11-12T14:56:06.876Z,983.68
2017-11-12T14:57:17.304Z,983.58
2017-11-12T14:58:27.724Z,983.63
2017-11-12T14:59:37.825Z,983.54
2017-11-12T15:00:47.919Z,983.57
2017-11-12T15:01:58.757Z,983.54
2017-11-12T15:03:09.195Z,983.54
2017-11-12T15:04:19.670Z,983.52
2017-11-12T15:05:30.099Z,983.46
2017-11-12T15:06:40.193Z,983.43
2017-11-12T15:07:50.638Z,983.43
2017-11-12T15:09:00.764Z,983.36
2017-11-12T15:10:11.188Z,983.35
2017-11-12T15:11:21.600Z,983.3
2017-11-12T15:12:32.019Z,983.23
2017-11-12T15:13:42.436Z,983.11